Time;durP1;ratioP1;P1;durP2;ratioP2;P2;SDS_P1;SDS_P2;PMS_P1;PMS_P2;Temp;Humidity;BMP_temperature;BMP_pressure;BME280_temperature;BME280_humidity;BME280_pressure;Samples;Min_cycle;Max_cycle;Signal;HPM_P1;HPM_P2
2022/03/07 00:01:56;;;;;;;22.13;3.67;;;-0.70;82.90;;;;;;4805265;29;20055;-75
2022/03/07 00:04:24;;;;;;;14.98;3.75;;;-0.80;83.00;;;;;;4804003;29;20410;-75
2022/03/07 00:06:52;;;;;;;12.43;3.95;;;-0.80;83.00;;;;;;4804984;29;20051;-74
2022/03/07 00:09:19;;;;;;;11.40;2.85;;;-0.90;83.10;;;;;;4805214;29;20051;-74
2022/03/07 00:11:47;;;;;;;15.15;3.33;;;-0.90;83.30;;;;;;4789049;29;20062;-74
2022/03/07 00:14:15;;;;;;;20.08;4.50;;;-0.90;83.60;;;;;;4818513;29;20059;-74
2022/03/07 00:16:44;;;;;;;16.23;3.17;;;-0.90;83.70;;;;;;4803883;29;20058;-73
2022/03/07 00:19:13;;;;;;;10.70;3.20;;;-0.90;83.90;;;;;;4818527;29;20059;-73
2022/03/07 00:21:40;;;;;;;12.90;3.22;;;-0.90;84.00;;;;;;4791029;29;20446;-73
2022/03/07 00:24:08;;;;;;;11.65;2.92;;;-0.90;84.30;;;;;;4790934;29;20055;-73
2022/03/07 00:26:36;;;;;;;7.85;3.38;;;-0.90;84.20;;;;;;4800247;29;20504;-74
2022/03/07 00:29:04;;;;;;;11.02;3.40;;;-1.00;84.30;;;;;;4803819;29;20047;-73
2022/03/07 00:31:32;;;;;;;18.50;3.53;;;-1.00;84.30;;;;;;4818450;29;20054;-73
2022/03/07 00:34:00;;;;;;;16.55;3.60;;;-1.10;84.30;;;;;;4805027;29;20054;-74
2022/03/07 00:36:28;;;;;;;21.15;4.03;;;-1.20;84.40;;;;;;4803582;29;20050;-74
2022/03/07 00:38:55;;;;;;;12.80;3.55;;;-1.20;84.60;;;;;;4788719;29;20509;-74
2022/03/07 00:41:23;;;;;;;17.73;3.40;;;-1.30;84.60;;;;;;4802131;29;20494;-74
2022/03/07 00:43:51;;;;;;;9.13;3.50;;;-1.30;84.60;;;;;;4818374;29;20073;-74
2022/03/07 00:46:18;;;;;;;17.45;4.65;;;-1.30;84.70;;;;;;4803702;29;20058;-74
2022/03/07 00:48:46;;;;;;;16.48;5.47;;;-1.40;84.70;;;;;;4802618;29;20138;-74
2022/03/07 00:51:15;;;;;;;18.63;5.32;;;-1.40;84.70;;;;;;4786475;29;20062;-74
2022/03/07 00:53:43;;;;;;;14.35;5.03;;;-1.50;84.80;;;;;;4817514;29;20553;-74
2022/03/07 00:56:11;;;;;;;19.00;5.53;;;-1.50;84.80;;;;;;4802485;29;20426;-74
2022/03/07 00:58:40;;;;;;;13.90;4.50;;;-1.50;84.90;;;;;;4818506;29;20095;-74
2022/03/07 01:01:08;;;;;;;11.35;4.00;;;-1.60;84.90;;;;;;4818308;29;20420;-74
2022/03/07 01:03:37;;;;;;;18.55;4.35;;;-1.60;85.00;;;;;;4788891;29;20426;-74
2022/03/07 01:06:05;;;;;;;17.48;3.50;;;-1.50;85.00;;;;;;4818322;29;20050;-73
2022/03/07 01:08:33;;;;;;;11.13;3.55;;;-1.50;85.00;;;;;;4804409;29;20055;-74
2022/03/07 01:11:01;;;;;;;11.90;4.57;;;-1.60;85.00;;;;;;4786376;29;20390;-73
2022/03/07 01:13:29;;;;;;;18.70;4.60;;;-1.60;85.10;;;;;;4806284;29;20058;-74
2022/03/07 01:15:57;;;;;;;14.63;3.95;;;-1.60;85.20;;;;;;4800877;29;20535;-73
2022/03/07 01:18:25;;;;;;;16.33;4.05;;;-1.70;85.10;;;;;;4798742;29;20054;-74
2022/03/07 01:20:53;;;;;;;13.77;4.07;;;-1.70;85.10;;;;;;4806617;29;20059;-73
2022/03/07 01:23:21;;;;;;;11.38;4.05;;;-1.80;85.20;;;;;;4807008;29;20047;-73
2022/03/07 01:25:48;;;;;;;14.60;4.50;;;-1.80;85.40;;;;;;4807328;29;20063;-73
2022/03/07 01:28:18;;;;;;;16.50;4.90;;;-1.90;85.40;;;;;;4807396;29;20062;-73
2022/03/07 01:30:48;;;;;;;14.98;4.80;;;-1.90;85.60;;;;;;4788527;29;20055;-73
2022/03/07 01:33:15;;;;;;;12.68;4.43;;;-1.90;85.60;;;;;;4789880;30;20043;-73
2022/03/07 01:35:43;;;;;;;12.95;3.78;;;-1.80;85.70;;;;;;4805993;29;20058;-73
2022/03/07 01:38:11;;;;;;;15.20;4.65;;;-1.70;85.70;;;;;;4805753;29;20058;-73
2022/03/07 01:40:41;;;;;;;18.25;4.28;;;-1.70;85.70;;;;;;4806836;29;20054;-74
2022/03/07 01:43:09;;;;;;;13.73;4.20;;;-1.70;85.70;;;;;;4807294;29;20054;-73
2022/03/07 01:45:39;;;;;;;30.08;4.85;;;-1.80;85.60;;;;;;4806354;29;20490;-73
2022/03/07 01:48:07;;;;;;;15.98;4.63;;;-1.80;85.70;;;;;;4806055;29;20494;-72
2022/03/07 01:50:35;;;;;;;12.00;4.03;;;-1.90;85.70;;;;;;4806114;29;20050;-74
2022/03/07 01:53:05;;;;;;;13.05;4.65;;;-2.00;85.80;;;;;;4790382;29;20127;-74
2022/03/07 01:55:32;;;;;;;14.88;4.70;;;-2.10;86.00;;;;;;4807375;29;20089;-74
2022/03/07 01:58:03;;;;;;;10.57;4.18;;;-2.10;86.00;;;;;;4791218;29;20050;-74
2022/03/07 02:00:32;;;;;;;17.92;4.60;;;-2.10;86.10;;;;;;4819935;29;20046;-74
2022/03/07 02:03:01;;;;;;;18.02;4.72;;;-2.10;86.10;;;;;;4806734;29;20055;-74
2022/03/07 02:05:38;;;;;;;21.90;5.03;;;-2.20;86.10;;;;;;4805543;29;20051;-74
2022/03/07 02:08:15;;;;;;;19.73;5.10;;;-2.20;86.30;;;;;;4821244;29;20059;-74
2022/03/07 02:11:06;;;;;;;20.52;4.55;;;-2.10;86.30;;;;;;4804231;29;20058;-74
2022/03/07 02:13:35;;;;;;;10.13;4.88;;;-2.20;86.20;;;;;;4801805;29;20055;-74
2022/03/07 02:16:06;;;;;;;14.52;4.85;;;-2.20;86.30;;;;;;4796289;29;20046;-74
2022/03/07 02:18:36;;;;;;;16.50;4.78;;;-2.20;86.30;;;;;;4806949;29;20051;-74
2022/03/07 02:21:16;;;;;;;14.43;5.45;;;-2.20;86.40;;;;;;4820445;29;20042;-74
2022/03/07 02:24:18;;;;;;;22.85;4.97;;;-2.20;86.40;;;;;;4791540;29;20078;-73
2022/03/07 02:27:20;;;;;;;16.02;4.00;;;-2.20;86.40;;;;;;4820969;29;20059;-74
2022/03/07 02:29:50;;;;;;;23.83;4.90;;;-2.30;86.40;;;;;;4814197;29;20058;-74
2022/03/07 02:32:24;;;;;;;15.18;4.43;;;-2.30;86.70;;;;;;4820147;29;20058;-74
2022/03/07 02:34:53;;;;;;;22.33;5.13;;;-2.30;86.80;;;;;;4805361;29;20043;-74
2022/03/07 02:37:21;;;;;;;19.33;5.57;;;-2.20;87.00;;;;;;4805653;29;20085;-74
2022/03/07 02:39:52;;;;;;;18.20;4.80;;;-2.10;87.00;;;;;;4802250;29;20051;-74
2022/03/07 02:42:42;;;;;;;8.40;4.28;;;-2.00;86.90;;;;;;4791647;29;20394;-74
2022/03/07 02:45:10;;;;;;;17.80;5.80;;;-1.90;86.70;;;;;;4806463;29;20071;-74
2022/03/07 02:47:38;;;;;;;11.73;4.30;;;-1.90;86.70;;;;;;4805631;29;20055;-74
2022/03/07 02:50:07;;;;;;;21.60;4.55;;;-1.90;86.70;;;;;;4789594;29;20435;-74
2022/03/07 02:52:35;;;;;;;18.83;4.20;;;-2.00;86.70;;;;;;4790150;29;20055;-74
2022/03/07 02:55:03;;;;;;;19.17;4.82;;;-2.00;86.80;;;;;;4804706;29;20051;-74
2022/03/07 02:57:31;;;;;;;21.67;5.03;;;-2.00;86.80;;;;;;4804629;29;20061;-74
2022/03/07 02:59:59;;;;;;;21.38;5.95;;;-2.00;86.90;;;;;;4805983;29;20046;-74
2022/03/07 03:02:26;;;;;;;27.85;5.40;;;-2.00;87.00;;;;;;4804916;29;20046;-74
2022/03/07 03:04:54;;;;;;;14.15;5.30;;;-2.00;87.20;;;;;;4806358;29;20058;-73
2022/03/07 03:07:22;;;;;;;17.52;5.60;;;-1.90;87.20;;;;;;4806120;29;20053;-74
2022/03/07 03:09:49;;;;;;;25.00;4.78;;;-1.90;87.10;;;;;;4805923;29;20406;-73
2022/03/07 03:12:19;;;;;;;13.43;4.55;;;-1.80;87.20;;;;;;4805804;29;20061;-73
2022/03/07 03:14:46;;;;;;;14.57;4.63;;;-1.80;87.10;;;;;;4804510;29;20058;-73
2022/03/07 03:17:14;;;;;;;17.73;4.93;;;-1.70;87.20;;;;;;4805517;29;20047;-74
2022/03/07 03:19:42;;;;;;;15.93;4.63;;;-1.60;87.20;;;;;;4803713;29;20541;-74
2022/03/07 03:22:10;;;;;;;16.27;6.18;;;-1.60;87.10;;;;;;4805633;29;20047;-74
2022/03/07 03:24:37;;;;;;;16.80;4.43;;;-1.50;87.10;;;;;;4805923;29;20050;-71
2022/03/07 03:27:05;;;;;;;18.88;4.07;;;-1.40;87.00;;;;;;4805986;29;20074;-72
2022/03/07 03:29:33;;;;;;;14.85;4.95;;;-1.30;87.00;;;;;;4804946;29;20466;-72
2022/03/07 03:32:00;;;;;;;18.27;4.75;;;-1.30;87.00;;;;;;4805428;29;20058;-73
2022/03/07 03:34:28;;;;;;;26.35;4.85;;;-1.20;86.90;;;;;;4805301;29;20137;-73
2022/03/07 03:36:57;;;;;;;17.17;4.00;;;-1.20;86.80;;;;;;4805585;29;20497;-73
2022/03/07 03:39:25;;;;;;;8.13;4.25;;;-1.10;86.80;;;;;;4805534;29;20051;-73
2022/03/07 03:41:52;;;;;;;15.80;4.72;;;-1.10;86.70;;;;;;4805463;29;20050;-73
2022/03/07 03:44:20;;;;;;;6.03;3.67;;;-1.00;86.80;;;;;;4805094;29;20051;-72
2022/03/07 03:46:48;;;;;;;20.13;4.25;;;-1.00;86.80;;;;;;4805145;29;20059;-72
2022/03/07 03:49:15;;;;;;;14.43;4.28;;;-0.90;86.70;;;;;;4803644;29;20055;-73
2022/03/07 03:51:43;;;;;;;21.38;4.70;;;-0.80;86.60;;;;;;4805192;29;20509;-73
2022/03/07 03:54:11;;;;;;;12.65;3.53;;;-0.80;86.60;;;;;;4804792;29;20442;-73
2022/03/07 03:56:40;;;;;;;16.65;4.10;;;-0.70;86.60;;;;;;4804542;29;20051;-72
2022/03/07 03:59:08;;;;;;;13.52;4.20;;;-0.60;86.50;;;;;;4799266;29;20102;-72
2022/03/07 04:01:35;;;;;;;12.05;4.57;;;-0.60;86.50;;;;;;4804626;29;20502;-72
2022/03/07 04:04:05;;;;;;;12.60;4.20;;;-0.50;86.50;;;;;;4804667;29;20066;-72
2022/03/07 04:06:33;;;;;;;19.88;5.32;;;-0.40;86.50;;;;;;4803676;29;20051;-73
2022/03/07 04:09:13;;;;;;;14.30;4.85;;;-0.40;86.40;;;;;;4818243;29;20824;-73
2022/03/07 04:11:41;;;;;;;13.05;4.18;;;-0.30;86.40;;;;;;4801365;29;20402;-72
2022/03/07 04:14:09;;;;;;;8.60;4.57;;;-0.20;86.40;;;;;;4804444;29;20063;-72
2022/03/07 04:16:38;;;;;;;19.67;5.10;;;-0.20;86.30;;;;;;4788015;29;20047;-73
2022/03/07 04:19:08;;;;;;;19.17;5.10;;;-0.10;86.30;;;;;;4804493;29;20587;-72
2022/03/07 04:21:36;;;;;;;16.52;4.65;;;-0.10;86.30;;;;;;4804980;29;20050;-72
2022/03/07 04:24:04;;;;;;;20.60;5.10;;;0.00;86.30;;;;;;4804387;29;20054;-72
2022/03/07 04:26:32;;;;;;;21.17;4.78;;;0.00;86.20;;;;;;4818411;29;20050;-72
2022/03/07 04:29:00;;;;;;;20.02;5.03;;;0.00;86.30;;;;;;4803234;29;20517;-72
2022/03/07 04:31:28;;;;;;;14.30;4.32;;;0.00;86.20;;;;;;4817906;29;20059;-72
2022/03/07 04:33:55;;;;;;;21.52;4.28;;;0.10;86.20;;;;;;4804459;29;20051;-72
2022/03/07 04:36:23;;;;;;;19.08;4.47;;;0.10;86.10;;;;;;4804627;29;20065;-72
2022/03/07 04:38:51;;;;;;;18.05;4.38;;;0.20;86.20;;;;;;4802186;29;20545;-72
2022/03/07 04:41:19;;;;;;;17.23;4.30;;;0.20;86.20;;;;;;4801278;29;20055;-72
2022/03/07 04:43:46;;;;;;;20.00;4.40;;;0.20;86.10;;;;;;4798446;29;20498;-72
2022/03/07 04:46:14;;;;;;;9.77;4.35;;;0.20;86.10;;;;;;4804036;29;20062;-72
2022/03/07 04:48:42;;;;;;;17.50;4.75;;;0.20;86.10;;;;;;4805669;29;20051;-72
2022/03/07 04:51:11;;;;;;;14.77;4.40;;;0.30;86.10;;;;;;4806159;29;20512;-72
2022/03/07 04:53:41;;;;;;;16.13;4.43;;;0.30;86.10;;;;;;4807172;29;20051;-72
2022/03/07 04:56:11;;;;;;;13.70;4.22;;;0.30;86.10;;;;;;4794608;29;20050;-72
2022/03/07 04:58:38;;;;;;;27.60;4.93;;;0.30;86.10;;;;;;4806775;29;20380;-72
2022/03/07 05:01:06;;;;;;;16.95;4.65;;;0.40;86.00;;;;;;4806472;29;20536;-72
2022/03/07 05:03:34;;;;;;;11.88;4.13;;;0.40;86.00;;;;;;4807814;29;20062;-72
2022/03/07 05:06:02;;;;;;;14.50;4.70;;;0.50;86.00;;;;;;4806914;29;20062;-72
2022/03/07 05:08:30;;;;;;;12.18;4.40;;;0.50;86.00;;;;;;4807859;29;20051;-72
2022/03/07 05:10:57;;;;;;;18.50;4.50;;;0.50;86.00;;;;;;4806820;29;20054;-72
2022/03/07 05:13:25;;;;;;;19.83;4.00;;;0.60;86.00;;;;;;4807444;29;20046;-72
2022/03/07 05:15:52;;;;;;;14.38;4.47;;;0.60;85.90;;;;;;4807895;29;20058;-72
2022/03/07 05:18:21;;;;;;;21.00;6.43;;;0.70;85.90;;;;;;4807715;29;20063;-72
2022/03/07 05:20:48;;;;;;;11.95;3.83;;;0.70;85.90;;;;;;4807467;29;20055;-72
2022/03/07 05:23:24;;;;;;;20.38;4.18;;;0.70;85.90;;;;;;4807691;29;20063;-72
2022/03/07 05:25:52;;;;;;;15.63;4.28;;;0.70;85.90;;;;;;4806282;29;20051;-72
2022/03/07 05:28:20;;;;;;;14.30;4.30;;;0.80;85.90;;;;;;4807382;29;20051;-72
2022/03/07 05:30:48;;;;;;;17.02;4.45;;;0.80;85.90;;;;;;4807627;29;20061;-72
2022/03/07 05:33:15;;;;;;;14.23;4.47;;;0.80;85.90;;;;;;4807426;29;20414;-72
2022/03/07 05:35:43;;;;;;;18.38;4.20;;;0.80;86.00;;;;;;4817464;29;20051;-72
2022/03/07 05:38:17;;;;;;;;;;;0.80;86.00;;;;;;4806983;29;20054;-72
2022/03/07 05:40:44;;;;;;;13.25;3.95;;;0.80;86.00;;;;;;4806203;29;19925;-72
2022/03/07 05:43:13;;;;;;;13.18;3.90;;;0.90;85.90;;;;;;4805288;29;20059;-72
2022/03/07 05:45:40;;;;;;;15.52;3.45;;;0.90;85.90;;;;;;4807030;29;20047;-72
2022/03/07 05:48:08;;;;;;;20.95;4.60;;;0.90;85.90;;;;;;4807199;29;20047;-72
2022/03/07 05:50:36;;;;;;;19.30;4.93;;;0.90;85.90;;;;;;4805851;29;20065;-73
2022/03/07 05:53:03;;;;;;;21.98;5.15;;;0.90;85.90;;;;;;4806386;29;20513;-72
2022/03/07 05:55:31;;;;;;;14.93;4.07;;;1.00;86.00;;;;;;4806501;29;20047;-72
2022/03/07 05:57:59;;;;;;;21.73;4.15;;;1.00;86.00;;;;;;4805731;29;20532;-72
2022/03/07 06:00:28;;;;;;;16.50;4.18;;;1.00;86.00;;;;;;4819858;29;20051;-72
2022/03/07 06:02:56;;;;;;;22.98;5.03;;;1.00;86.00;;;;;;4807162;29;20062;-72
2022/03/07 06:05:24;;;;;;;14.60;4.10;;;1.00;86.00;;;;;;4804629;29;20059;-72
2022/03/07 06:07:52;;;;;;;14.00;3.92;;;1.00;86.00;;;;;;4807223;29;20166;-72
2022/03/07 06:10:20;;;;;;;14.38;4.80;;;1.00;86.00;;;;;;4820173;29;20047;-73
2022/03/07 06:12:47;;;;;;;13.90;3.75;;;1.10;86.10;;;;;;4806608;29;20051;-72
2022/03/07 06:15:19;;;;;;;13.88;3.92;;;1.10;86.10;;;;;;4806537;29;20062;-72
2022/03/07 06:18:00;;;;;;;12.82;4.07;;;1.10;86.10;;;;;;4806291;29;20058;-73
2022/03/07 06:20:28;;;;;;;21.00;4.65;;;1.10;86.10;;;;;;4805907;29;20058;-72
2022/03/07 06:22:56;;;;;;;18.63;3.67;;;1.10;86.20;;;;;;4805031;29;20055;-73
2022/03/07 06:25:24;;;;;;;12.90;3.50;;;1.10;86.20;;;;;;4805378;29;20050;-72
2022/03/07 06:27:51;;;;;;;20.23;4.70;;;1.20;86.20;;;;;;4804880;29;20042;-72
2022/03/07 06:30:19;;;;;;;18.48;3.58;;;1.20;86.30;;;;;;4804309;29;20047;-72
2022/03/07 06:32:46;;;;;;;17.83;3.70;;;1.20;86.30;;;;;;4806824;29;20063;-72
2022/03/07 06:35:14;;;;;;;13.60;3.45;;;1.20;86.30;;;;;;4806131;29;20046;-72
2022/03/07 06:37:46;;;;;;;13.63;4.05;;;1.20;86.30;;;;;;4820107;29;20081;-72
2022/03/07 06:40:15;;;;;;;13.25;4.88;;;1.20;86.30;;;;;;4804892;29;20055;-73
2022/03/07 06:42:43;;;;;;;20.20;4.10;;;1.30;86.30;;;;;;4801008;29;20050;-72
2022/03/07 06:45:12;;;;;;;16.13;5.38;;;1.30;86.30;;;;;;4805932;29;20047;-73
2022/03/07 06:47:40;;;;;;;14.40;4.05;;;1.30;86.20;;;;;;4800496;29;20055;-73
2022/03/07 06:50:08;;;;;;;17.83;4.38;;;1.30;86.20;;;;;;4800812;29;20051;-72
2022/03/07 06:52:36;;;;;;;12.50;4.60;;;1.40;86.20;;;;;;4804282;29;20062;-72
2022/03/07 06:55:04;;;;;;;12.93;4.47;;;1.40;86.20;;;;;;4808810;29;20047;-72
2022/03/07 06:57:32;;;;;;;26.25;4.68;;;1.40;86.10;;;;;;4798239;29;20047;-72
2022/03/07 06:59:59;;;;;;;21.27;3.92;;;1.50;86.20;;;;;;4801586;29;20054;-72
2022/03/07 07:02:27;;;;;;;12.50;3.83;;;1.50;86.10;;;;;;4800251;29;20043;-71
2022/03/07 07:04:55;;;;;;;15.85;4.50;;;1.50;86.10;;;;;;4801629;29;20057;-72
2022/03/07 07:07:23;;;;;;;18.05;4.00;;;1.60;86.10;;;;;;4794608;29;20043;-71
2022/03/07 07:09:51;;;;;;;14.55;4.38;;;1.60;86.10;;;;;;4799435;29;20073;-71
2022/03/07 07:12:18;;;;;;;15.13;4.55;;;1.70;86.10;;;;;;4803778;29;20047;-72
2022/03/07 07:14:46;;;;;;;15.15;4.80;;;1.70;86.10;;;;;;4802030;29;20058;-71
2022/03/07 07:17:14;;;;;;;9.88;4.22;;;1.70;86.00;;;;;;4801888;29;20058;-72
2022/03/07 07:19:42;;;;;;;15.25;3.70;;;1.80;86.00;;;;;;4802958;29;20087;-72
2022/03/07 07:22:10;;;;;;;8.48;3.20;;;1.80;86.00;;;;;;4802932;29;20055;-71
2022/03/07 07:24:38;;;;;;;12.27;3.40;;;1.90;86.00;;;;;;4803678;29;20070;-71
2022/03/07 07:27:06;;;;;;;13.75;3.20;;;2.00;85.90;;;;;;4819025;29;20059;-71
2022/03/07 07:29:33;;;;;;;8.27;3.05;;;2.00;85.90;;;;;;4802057;29;20405;-71
2022/03/07 07:32:02;;;;;;;14.20;2.95;;;2.10;85.80;;;;;;4803535;29;20051;-71
2022/03/07 07:34:29;;;;;;;10.18;2.35;;;2.20;85.70;;;;;;4804365;29;20047;-71
2022/03/07 07:36:57;;;;;;;12.20;2.55;;;2.30;85.50;;;;;;4802161;29;20058;-72
2022/03/07 07:39:25;;;;;;;11.88;2.65;;;2.40;85.40;;;;;;4804376;29;20050;-71
2022/03/07 07:41:52;;;;;;;10.82;2.08;;;2.50;85.20;;;;;;4818655;29;20059;-71
2022/03/07 07:44:20;;;;;;;13.98;2.22;;;2.60;85.00;;;;;;4804862;29;20055;-71
2022/03/07 07:46:48;;;;;;;15.85;2.20;;;2.70;84.80;;;;;;4804731;29;20077;-71
2022/03/07 07:49:16;;;;;;;9.45;2.05;;;2.80;84.60;;;;;;4803960;29;20059;-71
2022/03/07 07:51:43;;;;;;;9.73;2.28;;;2.80;84.30;;;;;;4797480;29;20066;-71
2022/03/07 07:54:11;;;;;;;9.52;2.40;;;3.00;84.00;;;;;;4798523;29;20612;-72
2022/03/07 07:56:39;;;;;;;10.48;2.17;;;3.10;83.80;;;;;;4805806;29;20508;-71
2022/03/07 07:59:06;;;;;;;9.25;2.20;;;3.20;83.50;;;;;;4815136;29;20059;-72
2022/03/07 08:01:34;;;;;;;12.15;2.70;;;3.30;83.20;;;;;;4804153;29;20409;-72
2022/03/07 08:04:03;;;;;;;9.38;2.30;;;3.30;82.90;;;;;;4798940;29;20059;-72
2022/03/07 08:06:31;;;;;;;10.65;2.25;;;3.50;82.50;;;;;;4788248;29;20494;-72
2022/03/07 08:08:58;;;;;;;11.55;2.40;;;3.50;82.10;;;;;;4803661;29;20050;-71
2022/03/07 08:11:26;;;;;;;13.75;2.78;;;3.70;81.80;;;;;;4803457;29;20055;-71
2022/03/07 08:13:54;;;;;;;9.13;3.35;;;3.80;81.60;;;;;;4803882;29;20063;-71
2022/03/07 08:16:21;;;;;;;12.00;3.45;;;3.80;81.30;;;;;;4803381;29;20051;-71
2022/03/07 08:18:49;;;;;;;12.48;3.88;;;3.80;80.90;;;;;;4801995;29;20063;-71
2022/03/07 08:21:20;;;;;;;11.80;3.58;;;4.00;80.60;;;;;;4804343;29;20058;-71
2022/03/07 08:23:48;;;;;;;4.40;2.78;;;4.00;80.30;;;;;;4803033;29;20397;-71
2022/03/07 08:26:15;;;;;;;8.55;2.78;;;4.10;79.90;;;;;;4818516;29;20157;-72
2022/03/07 08:28:43;;;;;;;9.80;2.60;;;4.20;79.40;;;;;;4804887;29;20423;-71
2022/03/07 08:31:11;;;;;;;9.93;2.63;;;4.20;79.00;;;;;;4804001;29;20417;-71
2022/03/07 08:33:39;;;;;;;8.93;2.92;;;4.30;78.80;;;;;;4803611;29;20051;-71
2022/03/07 08:36:07;;;;;;;8.93;2.55;;;4.30;78.60;;;;;;4804806;29;20070;-71
2022/03/07 08:38:34;;;;;;;6.43;2.63;;;4.40;78.40;;;;;;4805181;29;20046;-72
2022/03/07 08:41:02;;;;;;;10.05;2.72;;;4.40;78.10;;;;;;4804599;29;20066;-71
2022/03/07 08:43:30;;;;;;;9.60;2.50;;;4.50;77.70;;;;;;4804223;29;20051;-71
2022/03/07 08:45:57;;;;;;;10.38;2.97;;;4.60;77.40;;;;;;4803810;29;20066;-71
2022/03/07 08:48:25;;;;;;;9.35;3.03;;;4.60;77.20;;;;;;4804187;29;20552;-70
2022/03/07 08:50:54;;;;;;;9.60;3.55;;;4.70;77.00;;;;;;4804439;29;20142;-70
2022/03/07 08:53:22;;;;;;;13.20;3.70;;;4.80;76.30;;;;;;4804868;29;20062;-71
2022/03/07 08:55:49;;;;;;;17.05;3.95;;;4.80;76.10;;;;;;4803615;29;20066;-71
2022/03/07 08:58:37;;;;;;;12.50;3.90;;;4.80;75.90;;;;;;4803359;29;20058;-70
2022/03/07 09:01:04;;;;;;;12.35;3.60;;;4.90;75.40;;;;;;4788533;29;20059;-70
2022/03/07 09:03:32;;;;;;;7.13;3.15;;;4.90;74.90;;;;;;4804858;29;20063;-71
2022/03/07 09:06:01;;;;;;;6.00;2.60;;;5.00;75.00;;;;;;4804788;29;20046;-70
2022/03/07 09:08:28;;;;;;;10.63;3.25;;;5.00;75.00;;;;;;4804084;29;20065;-71
2022/03/07 09:10:56;;;;;;;9.10;2.50;;;5.00;75.10;;;;;;4804326;29;20062;-70
2022/03/07 09:13:23;;;;;;;8.07;2.22;;;5.00;75.10;;;;;;4786750;30;20058;-70
2022/03/07 09:15:52;;;;;;;11.30;2.47;;;5.00;75.10;;;;;;4786890;29;20062;-70
2022/03/07 09:18:20;;;;;;;7.07;2.13;;;5.00;75.00;;;;;;4809554;29;20043;-70
2022/03/07 09:20:48;;;;;;;8.75;2.30;;;5.00;74.50;;;;;;4804077;29;20433;-70
2022/03/07 09:23:16;;;;;;;7.03;2.13;;;5.00;74.50;;;;;;4804747;29;20129;-70
2022/03/07 09:25:43;;;;;;;9.48;2.67;;;5.00;74.40;;;;;;4804301;29;20059;-70
2022/03/07 09:28:11;;;;;;;16.38;3.60;;;5.00;74.40;;;;;;4803437;29;20043;-70
2022/03/07 09:30:39;;;;;;;12.27;3.67;;;5.10;74.40;;;;;;4803983;29;20062;-70
2022/03/07 09:33:07;;;;;;;12.27;4.03;;;5.20;74.50;;;;;;4806410;29;20399;-70
2022/03/07 09:35:34;;;;;;;10.43;3.58;;;5.20;74.60;;;;;;4806323;29;20065;-70
2022/03/07 09:38:02;;;;;;;9.25;3.13;;;5.20;74.50;;;;;;4807140;29;20410;-70
2022/03/07 09:40:29;;;;;;;10.88;3.63;;;5.30;74.40;;;;;;4807659;29;20498;-70
2022/03/07 09:42:58;;;;;;;8.00;3.15;;;5.30;74.10;;;;;;4806832;29;20059;-71
2022/03/07 09:45:25;;;;;;;12.07;4.15;;;5.30;73.90;;;;;;4807835;29;20074;-70
2022/03/07 09:47:54;;;;;;;21.98;3.90;;;5.30;73.50;;;;;;4807842;29;20055;-71
2022/03/07 09:50:21;;;;;;;17.95;4.28;;;5.40;73.40;;;;;;4805756;29;20070;-70
2022/03/07 09:52:49;;;;;;;9.75;3.20;;;5.50;73.20;;;;;;4807690;29;20058;-71
2022/03/07 09:55:17;;;;;;;7.13;3.05;;;5.50;73.00;;;;;;4807631;29;20138;-71
2022/03/07 09:57:46;;;;;;;8.38;3.30;;;5.60;72.90;;;;;;4807496;29;20047;-71
2022/03/07 10:00:15;;;;;;;6.18;2.63;;;5.70;73.00;;;;;;4806788;29;20050;-70
2022/03/07 10:03:02;;;;;;;13.45;3.40;;;5.70;72.50;;;;;;4806916;29;20489;-71
2022/03/07 10:05:33;;;;;;;15.50;3.00;;;5.80;72.20;;;;;;4805896;29;20058;-71
2022/03/07 10:08:01;;;;;;;10.43;2.60;;;5.90;71.80;;;;;;4791429;29;20054;-70
2022/03/07 10:10:31;;;;;;;6.60;2.10;;;5.90;71.40;;;;;;4807401;29;20059;-70
2022/03/07 10:13:06;;;;;;;11.52;2.85;;;6.00;70.80;;;;;;4806977;29;20062;-71
2022/03/07 10:15:37;;;;;;;9.18;1.98;;;6.00;70.50;;;;;;4806887;29;20066;-71
2022/03/07 10:18:10;;;;;;;9.52;2.40;;;6.10;70.00;;;;;;4790835;29;20061;-71
2022/03/07 10:21:07;;;;;;;8.97;2.10;;;6.10;69.50;;;;;;4807063;29;20047;-71
2022/03/07 10:23:35;;;;;;;5.43;1.90;;;6.20;69.30;;;;;;4806082;29;20046;-71
2022/03/07 10:26:08;;;;;;;6.22;1.73;;;6.20;68.50;;;;;;4807154;29;20055;-71
2022/03/07 10:28:42;;;;;;;5.07;1.95;;;6.20;68.60;;;;;;4807135;29;20062;-71
2022/03/07 10:31:17;;;;;;;12.50;2.28;;;6.20;68.40;;;;;;4806559;29;20493;-71
2022/03/07 10:33:46;;;;;;;8.63;2.10;;;6.20;68.60;;;;;;4806817;29;20054;-71
2022/03/07 10:36:14;;;;;;;12.10;2.35;;;6.30;68.40;;;;;;4806221;29;20063;-69
2022/03/07 10:38:43;;;;;;;9.15;1.58;;;6.30;67.80;;;;;;4806524;29;20058;-70
2022/03/07 10:41:11;;;;;;;10.02;1.83;;;6.40;67.40;;;;;;4803244;29;20061;-70
2022/03/07 10:43:46;;;;;;;11.60;1.92;;;6.40;67.30;;;;;;4803822;29;20462;-70
2022/03/07 10:46:25;;;;;;;10.93;2.00;;;6.50;67.40;;;;;;4806768;29;20402;-70
2022/03/07 10:48:54;;;;;;;8.02;1.65;;;6.50;67.00;;;;;;4806693;29;20051;-70
2022/03/07 10:51:21;;;;;;;13.30;2.00;;;6.60;66.70;;;;;;4806523;29;20509;-70
2022/03/07 10:53:49;;;;;;;9.77;2.00;;;6.50;66.70;;;;;;4805677;29;20050;-70
2022/03/07 10:56:18;;;;;;;9.30;1.77;;;6.50;66.80;;;;;;4806675;29;20062;-71
2022/03/07 10:58:49;;;;;;;9.68;1.98;;;6.50;67.10;;;;;;4805017;29;20055;-70
2022/03/07 11:01:32;;;;;;;4.78;1.77;;;6.40;67.20;;;;;;4804315;29;20051;-70
2022/03/07 11:04:00;;;;;;;5.45;2.10;;;6.40;66.90;;;;;;4806571;29;20047;-69
2022/03/07 11:06:29;;;;;;;11.55;2.00;;;6.30;66.80;;;;;;4804417;29;20536;-69
2022/03/07 11:08:56;;;;;;;6.05;1.90;;;6.30;66.70;;;;;;4804423;29;20055;-70
2022/03/07 11:11:24;;;;;;;14.02;2.00;;;6.20;66.80;;;;;;4792865;29;20051;-69
2022/03/07 11:13:54;;;;;;;9.45;2.53;;;6.10;67.10;;;;;;4797893;29;20055;-70
2022/03/07 11:16:22;;;;;;;11.23;2.50;;;6.10;67.20;;;;;;4796928;29;20062;-70
2022/03/07 11:18:54;;;;;;;7.93;1.83;;;6.10;67.30;;;;;;4787892;29;20063;-70
2022/03/07 11:21:30;;;;;;;4.97;1.30;;;6.10;66.90;;;;;;4805960;29;20047;-70
2022/03/07 11:23:58;;;;;;;6.90;1.20;;;6.20;66.60;;;;;;4805791;29;20054;-70
2022/03/07 11:26:26;;;;;;;10.07;1.60;;;6.20;65.20;;;;;;4805768;29;20557;-69
2022/03/07 11:28:57;;;;;;;10.98;2.00;;;6.20;64.50;;;;;;4805446;29;20532;-69
2022/03/07 11:31:27;;;;;;;9.32;1.80;;;6.20;64.40;;;;;;4805328;29;20057;-70
2022/03/07 11:33:56;;;;;;;7.85;1.75;;;6.20;64.70;;;;;;4804245;29;20058;-71
2022/03/07 11:36:26;;;;;;;9.05;1.60;;;6.20;64.80;;;;;;4819197;29;20047;-71
2022/03/07 11:39:05;;;;;;;9.02;1.67;;;6.30;64.60;;;;;;4804868;29;20055;-71
2022/03/07 11:41:36;;;;;;;8.32;1.50;;;6.30;64.40;;;;;;4803963;29;20438;-70
2022/03/07 11:44:10;;;;;;;8.57;1.65;;;6.50;64.30;;;;;;4802174;29;20066;-71
2022/03/07 11:46:41;;;;;;;7.65;1.63;;;6.60;64.10;;;;;;4787774;29;20063;-70
2022/03/07 11:49:22;;;;;;;10.60;1.45;;;6.70;64.00;;;;;;4805197;29;20043;-71
2022/03/07 11:52:04;;;;;;;7.88;1.63;;;6.80;62.90;;;;;;4805114;29;20510;-71
2022/03/07 11:54:32;;;;;;;8.82;1.33;;;7.10;62.50;;;;;;4802755;29;20059;-71
2022/03/07 11:57:11;;;;;;;4.07;1.33;;;7.30;61.60;;;;;;4804913;29;20055;-71
2022/03/07 11:59:38;;;;;;;7.72;1.90;;;7.30;61.90;;;;;;4793032;29;20066;-71
2022/03/07 12:02:06;;;;;;;9.60;1.33;;;7.50;61.70;;;;;;4805060;29;20050;-71
2022/03/07 12:04:41;;;;;;;7.93;1.25;;;7.50;60.80;;;;;;4805142;29;20069;-72
2022/03/07 12:07:09;;;;;;;5.65;1.38;;;7.50;60.80;;;;;;4804161;29;20046;-72
2022/03/07 12:09:39;;;;;;;8.30;1.15;;;7.40;61.00;;;;;;4805610;29;20051;-69
2022/03/07 12:12:14;;;;;;;13.93;2.55;;;7.30;61.10;;;;;;4803690;29;20055;-70
2022/03/07 12:14:43;;;;;;;15.18;5.32;;;7.30;61.30;;;;;;4804801;29;20050;-71
2022/03/07 12:17:17;;;;;;;5.28;1.35;;;7.30;61.70;;;;;;4804849;29;20421;-71
2022/03/07 12:19:56;;;;;;;11.93;1.88;;;7.40;62.00;;;;;;4805343;29;20058;-70
2022/03/07 12:22:26;;;;;;;4.75;1.30;;;7.50;61.90;;;;;;4804396;29;20409;-69
2022/03/07 12:25:00;;;;;;;6.60;1.05;;;7.70;61.10;;;;;;4805311;29;20046;-70
2022/03/07 12:27:30;;;;;;;7.97;1.60;;;7.70;60.60;;;;;;4803922;29;20051;-70
2022/03/07 12:29:58;;;;;;;5.65;1.17;;;7.70;60.80;;;;;;4804901;29;20059;-70
2022/03/07 12:32:26;;;;;;;6.30;1.55;;;7.70;60.80;;;;;;4804658;29;20536;-71
2022/03/07 12:34:54;;;;;;;8.27;1.50;;;7.60;61.10;;;;;;4805452;29;20059;-71
2022/03/07 12:37:22;;;;;;;8.25;1.30;;;7.60;61.50;;;;;;4804998;29;20389;-71
2022/03/07 12:39:50;;;;;;;9.68;1.50;;;7.70;61.40;;;;;;4788419;29;20067;-71
2022/03/07 12:42:21;;;;;;;7.70;1.70;;;7.70;61.50;;;;;;4804657;29;20051;-72
2022/03/07 12:44:50;;;;;;;7.03;1.40;;;7.80;61.50;;;;;;4804165;29;20047;-71
2022/03/07 12:47:25;;;;;;;6.35;0.93;;;7.90;61.20;;;;;;4803472;29;20058;-71
2022/03/07 12:49:53;;;;;;;5.88;1.45;;;8.20;61.50;;;;;;4803082;29;20058;-71
2022/03/07 12:52:25;;;;;;;4.70;1.00;;;8.80;60.50;;;;;;4803701;29;20050;-71
2022/03/07 12:54:55;;;;;;;9.05;1.30;;;9.30;57.70;;;;;;4803007;29;20059;-71
2022/03/07 12:57:23;;;;;;;10.07;1.27;;;9.20;56.20;;;;;;4800208;29;20062;-71